sensor_id;sensor_type;location;lat;lon;timestamp;temperature;humidity
9925;DHT22;5001;51.674;7.868;2022-12-18T00:01:30;-10.00;1.00
9925;DHT22;5001;51.674;7.868;2022-12-18T00:04:02;-10.10;1.00
9925;DHT22;5001;51.674;7.868;2022-12-18T00:06:31;-10.10;1.00
9925;DHT22;5001;51.674;7.868;2022-12-18T00:08:59;-10.10;1.00
9925;DHT22;5001;51.674;7.868;2022-12-18T00:11:29;-10.10;1.00
9925;DHT22;5001;51.674;7.868;2022-12-18T00:13:57;-10.10;1.00
9925;DHT22;5001;51.674;7.868;2022-12-18T00:16:26;-10.10;1.00
9925;DHT22;5001;51.674;7.868;2022-12-18T00:18:55;-10.00;1.00
9925;DHT22;5001;51.674;7.868;2022-12-18T00:21:22;-10.00;1.00
9925;DHT22;5001;51.674;7.868;2022-12-18T00:23:50;-10.00;1.00
9925;DHT22;5001;51.674;7.868;2022-12-18T00:26:19;-9.90;1.00
9925;DHT22;5001;51.674;7.868;2022-12-18T00:28:49;-10.00;1.00
9925;DHT22;5001;51.674;7.868;2022-12-18T00:31:19;-10.00;1.00
9925;DHT22;5001;51.674;7.868;2022-12-18T00:33:47;-10.10;1.00
9925;DHT22;5001;51.674;7.868;2022-12-18T00:36:21;-10.10;1.00
9925;DHT22;5001;51.674;7.868;2022-12-18T00:38:51;-10.00;1.00
9925;DHT22;5001;51.674;7.868;2022-12-18T00:41:19;-10.00;1.00
9925;DHT22;5001;51.674;7.868;2022-12-18T00:44:07;-10.10;1.00
9925;DHT22;5001;51.674;7.868;2022-12-18T00:46:34;-10.10;1.00
9925;DHT22;5001;51.674;7.868;2022-12-18T00:49:02;-10.00;1.00
9925;DHT22;5001;51.674;7.868;2022-12-18T00:51:29;-10.10;1.00
9925;DHT22;5001;51.674;7.868;2022-12-18T00:53:56;-10.10;1.00
9925;DHT22;5001;51.674;7.868;2022-12-18T00:56:23;-10.10;1.00
9925;DHT22;5001;51.674;7.868;2022-12-18T00:58:52;-10.10;1.00
9925;DHT22;5001;51.674;7.868;2022-12-18T01:01:19;-10.10;1.00
9925;DHT22;5001;51.674;7.868;2022-12-18T01:03:46;-10.10;1.00
9925;DHT22;5001;51.674;7.868;2022-12-18T01:06:15;-10.10;1.00
9925;DHT22;5001;51.674;7.868;2022-12-18T01:08:43;-10.10;1.00
9925;DHT22;5001;51.674;7.868;2022-12-18T01:11:15;-10.10;1.00
9925;DHT22;5001;51.674;7.868;2022-12-18T01:13:42;-10.10;1.00
9925;DHT22;5001;51.674;7.868;2022-12-18T01:16:14;-10.10;1.00
9925;DHT22;5001;51.674;7.868;2022-12-18T01:18:42;-10.10;1.00
9925;DHT22;5001;51.674;7.868;2022-12-18T01:21:12;-10.10;1.00
9925;DHT22;5001;51.674;7.868;2022-12-18T01:23:39;-10.10;1.00
9925;DHT22;5001;51.674;7.868;2022-12-18T01:26:09;-10.20;1.00
9925;DHT22;5001;51.674;7.868;2022-12-18T01:28:38;-10.20;1.00
9925;DHT22;5001;51.674;7.868;2022-12-18T01:31:31;-10.10;1.00
9925;DHT22;5001;51.674;7.868;2022-12-18T01:34:02;-10.00;1.00
9925;DHT22;5001;51.674;7.868;2022-12-18T01:36:31;-10.10;1.00
9925;DHT22;5001;51.674;7.868;2022-12-18T01:39:04;-10.10;1.00
9925;DHT22;5001;51.674;7.868;2022-12-18T01:41:32;-10.10;1.00
9925;DHT22;5001;51.674;7.868;2022-12-18T01:49:55;-10.30;1.00
9925;DHT22;5001;51.674;7.868;2022-12-18T01:52:24;-10.40;1.00
9925;DHT22;5001;51.674;7.868;2022-12-18T01:54:53;-10.40;1.00
9925;DHT22;5001;51.674;7.868;2022-12-18T01:57:22;-10.40;1.00
9925;DHT22;5001;51.674;7.868;2022-12-18T01:59:52;-10.40;1.00
9925;DHT22;5001;51.674;7.868;2022-12-18T02:02:20;-10.50;1.00
9925;DHT22;5001;51.674;7.868;2022-12-18T02:04:48;-10.50;1.00
9925;DHT22;5001;51.674;7.868;2022-12-18T02:13:03;-10.40;1.00
9925;DHT22;5001;51.674;7.868;2022-12-18T02:15:43;-10.40;1.00
9925;DHT22;5001;51.674;7.868;2022-12-18T02:18:21;-10.50;1.00
9925;DHT22;5001;51.674;7.868;2022-12-18T02:23:52;-10.50;1.00
9925;DHT22;5001;51.674;7.868;2022-12-18T02:26:26;-10.50;1.00
9925;DHT22;5001;51.674;7.868;2022-12-18T02:29:02;-10.50;1.00
9925;DHT22;5001;51.674;7.868;2022-12-18T02:31:42;-10.50;1.00
9925;DHT22;5001;51.674;7.868;2022-12-18T02:34:11;-10.50;1.00
9925;DHT22;5001;51.674;7.868;2022-12-18T02:36:41;-10.50;1.00
9925;DHT22;5001;51.674;7.868;2022-12-18T02:39:11;-10.50;1.00
9925;DHT22;5001;51.674;7.868;2022-12-18T02:41:46;-10.50;1.00
9925;DHT22;5001;51.674;7.868;2022-12-18T02:44:14;-10.50;1.00
9925;DHT22;5001;51.674;7.868;2022-12-18T02:46:46;-10.50;1.00
9925;DHT22;5001;51.674;7.868;2022-12-18T02:49:36;-10.60;1.00
9925;DHT22;5001;51.674;7.868;2022-12-18T02:58:15;-10.40;1.00
9925;DHT22;5001;51.674;7.868;2022-12-18T03:03:41;-10.50;1.00
9925;DHT22;5001;51.674;7.868;2022-12-18T03:06:12;-10.40;1.00
9925;DHT22;5001;51.674;7.868;2022-12-18T03:08:46;-10.40;1.00
9925;DHT22;5001;51.674;7.868;2022-12-18T03:11:16;-10.50;1.00
9925;DHT22;5001;51.674;7.868;2022-12-18T03:14:06;-10.50;1.00
9925;DHT22;5001;51.674;7.868;2022-12-18T03:16:35;-10.50;1.00
9925;DHT22;5001;51.674;7.868;2022-12-18T03:19:13;-10.50;1.00
9925;DHT22;5001;51.674;7.868;2022-12-18T03:21:49;-10.60;1.00
9925;DHT22;5001;51.674;7.868;2022-12-18T03:24:18;-10.70;1.00
9925;DHT22;5001;51.674;7.868;2022-12-18T03:26:51;-10.60;1.00
9925;DHT22;5001;51.674;7.868;2022-12-18T03:32:02;-10.70;1.00
9925;DHT22;5001;51.674;7.868;2022-12-18T03:34:34;-10.70;1.00
9925;DHT22;5001;51.674;7.868;2022-12-18T03:37:05;-10.70;1.00
9925;DHT22;5001;51.674;7.868;2022-12-18T03:39:34;-10.70;1.00
9925;DHT22;5001;51.674;7.868;2022-12-18T03:42:12;-10.70;1.00
9925;DHT22;5001;51.674;7.868;2022-12-18T03:50:20;-10.80;1.00
9925;DHT22;5001;51.674;7.868;2022-12-18T03:55:18;-10.70;1.00
9925;DHT22;5001;51.674;7.868;2022-12-18T03:57:52;-10.70;1.00
9925;DHT22;5001;51.674;7.868;2022-12-18T04:00:20;-10.70;1.00
9925;DHT22;5001;51.674;7.868;2022-12-18T04:03:00;-10.80;1.00
9925;DHT22;5001;51.674;7.868;2022-12-18T04:05:38;-10.80;1.00
9925;DHT22;5001;51.674;7.868;2022-12-18T04:08:06;-10.70;1.00
9925;DHT22;5001;51.674;7.868;2022-12-18T04:10:37;-10.70;1.00
9925;DHT22;5001;51.674;7.868;2022-12-18T04:13:04;-10.60;1.00
9925;DHT22;5001;51.674;7.868;2022-12-18T04:15:34;-10.60;1.00
9925;DHT22;5001;51.674;7.868;2022-12-18T04:18:04;-10.60;1.00
9925;DHT22;5001;51.674;7.868;2022-12-18T04:20:38;-10.60;1.00
9925;DHT22;5001;51.674;7.868;2022-12-18T04:23:05;-10.60;1.00
9925;DHT22;5001;51.674;7.868;2022-12-18T04:25:32;-10.60;1.00
9925;DHT22;5001;51.674;7.868;2022-12-18T04:28:13;-10.70;1.00
9925;DHT22;5001;51.674;7.868;2022-12-18T04:30:41;-10.70;1.00
9925;DHT22;5001;51.674;7.868;2022-12-18T04:33:13;-10.70;1.00
9925;DHT22;5001;51.674;7.868;2022-12-18T04:35:40;-10.80;1.00
9925;DHT22;5001;51.674;7.868;2022-12-18T04:38:08;-10.80;1.00
9925;DHT22;5001;51.674;7.868;2022-12-18T04:40:35;-10.90;1.00
9925;DHT22;5001;51.674;7.868;2022-12-18T04:43:07;-10.90;1.00
9925;DHT22;5001;51.674;7.868;2022-12-18T04:45:35;-10.90;1.00
9925;DHT22;5001;51.674;7.868;2022-12-18T04:48:02;-10.90;1.00
9925;DHT22;5001;51.674;7.868;2022-12-18T04:50:30;-10.90;1.00
9925;DHT22;5001;51.674;7.868;2022-12-18T04:52:57;-10.90;1.00
9925;DHT22;5001;51.674;7.868;2022-12-18T04:55:24;-10.90;1.00
9925;DHT22;5001;51.674;7.868;2022-12-18T04:57:51;-10.90;1.00
9925;DHT22;5001;51.674;7.868;2022-12-18T05:00:18;-10.80;1.00
9925;DHT22;5001;51.674;7.868;2022-12-18T05:02:45;-10.90;1.00
9925;DHT22;5001;51.674;7.868;2022-12-18T05:05:12;-10.90;1.00
9925;DHT22;5001;51.674;7.868;2022-12-18T05:07:39;-10.80;1.00
9925;DHT22;5001;51.674;7.868;2022-12-18T05:10:07;-10.80;1.00
9925;DHT22;5001;51.674;7.868;2022-12-18T05:12:36;-10.80;1.00
9925;DHT22;5001;51.674;7.868;2022-12-18T05:15:23;-10.80;1.00
9925;DHT22;5001;51.674;7.868;2022-12-18T05:17:50;-10.90;1.00
9925;DHT22;5001;51.674;7.868;2022-12-18T05:20:17;-10.90;1.00
9925;DHT22;5001;51.674;7.868;2022-12-18T05:22:45;-10.90;1.00
9925;DHT22;5001;51.674;7.868;2022-12-18T05:25:11;-10.90;1.00
9925;DHT22;5001;51.674;7.868;2022-12-18T05:27:38;-10.90;1.00
9925;DHT22;5001;51.674;7.868;2022-12-18T05:30:06;-11.00;1.00
9925;DHT22;5001;51.674;7.868;2022-12-18T05:32:33;-11.00;1.00
9925;DHT22;5001;51.674;7.868;2022-12-18T05:35:00;-11.00;1.00
9925;DHT22;5001;51.674;7.868;2022-12-18T05:37:27;-11.00;1.00
9925;DHT22;5001;51.674;7.868;2022-12-18T05:39:54;-10.90;1.00
9925;DHT22;5001;51.674;7.868;2022-12-18T05:42:21;-10.90;1.00
9925;DHT22;5001;51.674;7.868;2022-12-18T05:44:48;-10.90;1.00
9925;DHT22;5001;51.674;7.868;2022-12-18T05:47:15;-10.90;1.00
9925;DHT22;5001;51.674;7.868;2022-12-18T05:49:42;-10.90;1.00
9925;DHT22;5001;51.674;7.868;2022-12-18T05:52:09;-10.80;1.00
9925;DHT22;5001;51.674;7.868;2022-12-18T05:54:36;-10.90;1.00
9925;DHT22;5001;51.674;7.868;2022-12-18T05:57:03;-10.90;1.00
9925;DHT22;5001;51.674;7.868;2022-12-18T05:59:30;-10.90;1.00
9925;DHT22;5001;51.674;7.868;2022-12-18T06:01:56;-10.90;1.00
9925;DHT22;5001;51.674;7.868;2022-12-18T06:04:24;-10.90;1.00
9925;DHT22;5001;51.674;7.868;2022-12-18T06:06:53;-10.80;1.00
9925;DHT22;5001;51.674;7.868;2022-12-18T06:09:20;-10.70;1.00
9925;DHT22;5001;51.674;7.868;2022-12-18T06:11:46;-10.50;1.00
9925;DHT22;5001;51.674;7.868;2022-12-18T06:14:13;-10.50;1.00
9925;DHT22;5001;51.674;7.868;2022-12-18T06:16:43;-10.60;1.00
9925;DHT22;5001;51.674;7.868;2022-12-18T06:19:14;-10.70;1.00
9925;DHT22;5001;51.674;7.868;2022-12-18T06:21:42;-10.80;1.00
9925;DHT22;5001;51.674;7.868;2022-12-18T06:24:09;-10.80;1.00
9925;DHT22;5001;51.674;7.868;2022-12-18T06:26:40;-10.90;1.00
9925;DHT22;5001;51.674;7.868;2022-12-18T06:29:07;-10.90;1.00
9925;DHT22;5001;51.674;7.868;2022-12-18T06:31:34;-10.90;1.00
9925;DHT22;5001;51.674;7.868;2022-12-18T06:34:03;-10.90;1.00
9925;DHT22;5001;51.674;7.868;2022-12-18T06:36:30;-10.90;1.00
9925;DHT22;5001;51.674;7.868;2022-12-18T06:38:57;-10.90;1.00
9925;DHT22;5001;51.674;7.868;2022-12-18T06:41:24;-10.90;1.00
9925;DHT22;5001;51.674;7.868;2022-12-18T06:43:51;-11.00;1.00
9925;DHT22;5001;51.674;7.868;2022-12-18T06:46:25;-11.00;1.00
9925;DHT22;5001;51.674;7.868;2022-12-18T06:48:52;-10.90;1.00
9925;DHT22;5001;51.674;7.868;2022-12-18T06:51:20;-10.90;1.00
9925;DHT22;5001;51.674;7.868;2022-12-18T06:53:48;-11.00;1.00
9925;DHT22;5001;51.674;7.868;2022-12-18T06:56:15;-11.00;1.00
9925;DHT22;5001;51.674;7.868;2022-12-18T06:58:42;-11.00;1.00
9925;DHT22;5001;51.674;7.868;2022-12-18T07:01:10;-11.00;1.00
9925;DHT22;5001;51.674;7.868;2022-12-18T07:03:39;-10.90;1.00
9925;DHT22;5001;51.674;7.868;2022-12-18T07:06:14;-10.90;1.00
9925;DHT22;5001;51.674;7.868;2022-12-18T07:08:41;-10.90;1.00
9925;DHT22;5001;51.674;7.868;2022-12-18T07:11:08;-10.80;1.00
9925;DHT22;5001;51.674;7.868;2022-12-18T07:13:35;-10.90;1.00
9925;DHT22;5001;51.674;7.868;2022-12-18T07:16:08;-10.80;1.00
9925;DHT22;5001;51.674;7.868;2022-12-18T07:18:45;-10.80;1.00
9925;DHT22;5001;51.674;7.868;2022-12-18T07:21:16;-10.70;1.00
9925;DHT22;5001;51.674;7.868;2022-12-18T07:23:43;-10.60;1.00
9925;DHT22;5001;51.674;7.868;2022-12-18T07:26:13;-10.60;1.00
9925;DHT22;5001;51.674;7.868;2022-12-18T07:28:41;-10.50;1.00
9925;DHT22;5001;51.674;7.868;2022-12-18T07:31:11;-10.50;1.00
9925;DHT22;5001;51.674;7.868;2022-12-18T07:33:39;-10.40;1.00
9925;DHT22;5001;51.674;7.868;2022-12-18T07:36:07;-10.30;1.00
9925;DHT22;5001;51.674;7.868;2022-12-18T07:38:35;-10.30;1.00
9925;DHT22;5001;51.674;7.868;2022-12-18T07:41:03;-10.20;1.00
9925;DHT22;5001;51.674;7.868;2022-12-18T07:43:33;-10.20;1.00
9925;DHT22;5001;51.674;7.868;2022-12-18T07:46:00;-10.20;1.00
9925;DHT22;5001;51.674;7.868;2022-12-18T07:48:28;-10.10;1.00
9925;DHT22;5001;51.674;7.868;2022-12-18T07:50:59;-10.10;1.00
9925;DHT22;5001;51.674;7.868;2022-12-18T07:53:27;-10.00;1.00
9925;DHT22;5001;51.674;7.868;2022-12-18T07:55:58;-10.00;1.00
9925;DHT22;5001;51.674;7.868;2022-12-18T07:58:45;-9.90;1.00
9925;DHT22;5001;51.674;7.868;2022-12-18T08:01:13;-9.80;1.00
9925;DHT22;5001;51.674;7.868;2022-12-18T08:03:41;-9.80;1.00
9925;DHT22;5001;51.674;7.868;2022-12-18T08:06:09;-9.80;1.00
9925;DHT22;5001;51.674;7.868;2022-12-18T08:08:36;-9.70;1.00
9925;DHT22;5001;51.674;7.868;2022-12-18T08:11:04;-9.60;1.00
9925;DHT22;5001;51.674;7.868;2022-12-18T08:13:30;-9.50;1.00
9925;DHT22;5001;51.674;7.868;2022-12-18T08:16:01;-9.40;1.00
9925;DHT22;5001;51.674;7.868;2022-12-18T08:18:29;-9.20;1.00
9925;DHT22;5001;51.674;7.868;2022-12-18T08:21:17;-9.10;1.00
9925;DHT22;5001;51.674;7.868;2022-12-18T08:23:47;-8.90;1.00
9925;DHT22;5001;51.674;7.868;2022-12-18T08:26:15;-8.60;1.00
9925;DHT22;5001;51.674;7.868;2022-12-18T08:28:42;-8.40;1.00
9925;DHT22;5001;51.674;7.868;2022-12-18T08:31:09;-8.20;1.00
9925;DHT22;5001;51.674;7.868;2022-12-18T08:33:37;-8.10;1.00
9925;DHT22;5001;51.674;7.868;2022-12-18T08:36:05;-7.90;1.00
9925;DHT22;5001;51.674;7.868;2022-12-18T08:38:33;-7.80;1.00
9925;DHT22;5001;51.674;7.868;2022-12-18T08:41:01;-7.70;1.00
9925;DHT22;5001;51.674;7.868;2022-12-18T08:43:28;-7.60;1.00
9925;DHT22;5001;51.674;7.868;2022-12-18T08:46:13;-7.50;1.00
9925;DHT22;5001;51.674;7.868;2022-12-18T08:48:41;-7.30;1.00
9925;DHT22;5001;51.674;7.868;2022-12-18T08:51:08;-7.10;1.00
9925;DHT22;5001;51.674;7.868;2022-12-18T08:53:36;-7.10;1.00
9925;DHT22;5001;51.674;7.868;2022-12-18T08:56:05;-6.90;1.00
9925;DHT22;5001;51.674;7.868;2022-12-18T08:58:32;-6.70;1.00
9925;DHT22;5001;51.674;7.868;2022-12-18T09:01:03;-6.60;1.00
9925;DHT22;5001;51.674;7.868;2022-12-18T09:03:31;-6.40;1.00
9925;DHT22;5001;51.674;7.868;2022-12-18T09:05:58;-6.20;1.00
9925;DHT22;5001;51.674;7.868;2022-12-18T09:08:25;-6.00;1.00
9925;DHT22;5001;51.674;7.868;2022-12-18T09:10:53;-5.80;1.00
9925;DHT22;5001;51.674;7.868;2022-12-18T09:13:20;-5.50;1.00
9925;DHT22;5001;51.674;7.868;2022-12-18T09:15:50;-5.20;1.00
9925;DHT22;5001;51.674;7.868;2022-12-18T09:18:18;-5.00;1.00
9925;DHT22;5001;51.674;7.868;2022-12-18T09:20:46;-4.70;1.00
9925;DHT22;5001;51.674;7.868;2022-12-18T09:23:14;-4.50;1.00
9925;DHT22;5001;51.674;7.868;2022-12-18T09:25:41;-3.70;1.00
9925;DHT22;5001;51.674;7.868;2022-12-18T09:28:13;-2.50;1.00
9925;DHT22;5001;51.674;7.868;2022-12-18T09:30:48;-0.80;1.00
9925;DHT22;5001;51.674;7.868;2022-12-18T09:33:16;2.00;1.00
9925;DHT22;5001;51.674;7.868;2022-12-18T09:35:44;4.40;1.00
9925;DHT22;5001;51.674;7.868;2022-12-18T09:38:14;5.50;1.00
9925;DHT22;5001;51.674;7.868;2022-12-18T09:40:52;5.10;1.00
9925;DHT22;5001;51.674;7.868;2022-12-18T09:43:26;3.80;1.00
9925;DHT22;5001;51.674;7.868;2022-12-18T09:46:02;1.90;1.00
9925;DHT22;5001;51.674;7.868;2022-12-18T09:48:42;0.80;1.00
9925;DHT22;5001;51.674;7.868;2022-12-18T09:51:20;1.00;1.00
9925;DHT22;5001;51.674;7.868;2022-12-18T09:53:56;1.60;1.00
9925;DHT22;5001;51.674;7.868;2022-12-18T09:56:26;2.10;1.00
9925;DHT22;5001;51.674;7.868;2022-12-18T09:59:01;3.70;1.00
9925;DHT22;5001;51.674;7.868;2022-12-18T10:01:31;4.80;1.00
9925;DHT22;5001;51.674;7.868;2022-12-18T10:04:09;5.90;1.00
9925;DHT22;5001;51.674;7.868;2022-12-18T10:06:42;7.10;1.00
9925;DHT22;5001;51.674;7.868;2022-12-18T10:09:32;8.10;1.00
9925;DHT22;5001;51.674;7.868;2022-12-18T10:15:02;8.60;1.00
9925;DHT22;5001;51.674;7.868;2022-12-18T10:17:55;9.00;1.00
9925;DHT22;5001;51.674;7.868;2022-12-18T10:20:54;6.80;1.00
9925;DHT22;5001;51.674;7.868;2022-12-18T10:26:24;6.30;1.00
9925;DHT22;5001;51.674;7.868;2022-12-18T10:28:53;6.20;1.00
9925;DHT22;5001;51.674;7.868;2022-12-18T10:31:23;5.80;1.00
9925;DHT22;5001;51.674;7.868;2022-12-18T10:33:51;5.70;1.00
9925;DHT22;5001;51.674;7.868;2022-12-18T10:36:23;5.80;1.00
9925;DHT22;5001;51.674;7.868;2022-12-18T10:38:51;5.60;1.00
9925;DHT22;5001;51.674;7.868;2022-12-18T10:43:47;4.30;1.00
9925;DHT22;5001;51.674;7.868;2022-12-18T10:46:17;4.00;1.00
9925;DHT22;5001;51.674;7.868;2022-12-18T10:56:29;2.70;1.00
9925;DHT22;5001;51.674;7.868;2022-12-18T10:58:59;2.40;1.00
9925;DHT22;5001;51.674;7.868;2022-12-18T11:01:26;2.00;1.00
9925;DHT22;5001;51.674;7.868;2022-12-18T11:06:27;1.80;1.00
9925;DHT22;5001;51.674;7.868;2022-12-18T11:09:01;2.10;1.00
9925;DHT22;5001;51.674;7.868;2022-12-18T11:11:39;1.90;1.00
9925;DHT22;5001;51.674;7.868;2022-12-18T11:14:14;1.60;1.00
9925;DHT22;5001;51.674;7.868;2022-12-18T11:16:45;1.50;1.00
9925;DHT22;5001;51.674;7.868;2022-12-18T11:19:35;2.00;1.00
9925;DHT22;5001;51.674;7.868;2022-12-18T11:24:55;3.00;1.00
9925;DHT22;5001;51.674;7.868;2022-12-18T11:30:36;2.90;1.00
9925;DHT22;5001;51.674;7.868;2022-12-18T11:33:06;2.60;1.00
9925;DHT22;5001;51.674;7.868;2022-12-18T11:35:47;2.60;1.00
9925;DHT22;5001;51.674;7.868;2022-12-18T11:38:22;2.40;1.00
9925;DHT22;5001;51.674;7.868;2022-12-18T11:43:55;2.20;1.00
9925;DHT22;5001;51.674;7.868;2022-12-18T11:46:36;1.90;1.00
9925;DHT22;5001;51.674;7.868;2022-12-18T11:49:20;1.40;1.00
9925;DHT22;5001;51.674;7.868;2022-12-18T11:54:20;1.40;1.00
9925;DHT22;5001;51.674;7.868;2022-12-18T11:56:58;1.20;1.00
9925;DHT22;5001;51.674;7.868;2022-12-18T12:05:28;0.40;1.00
9925;DHT22;5001;51.674;7.868;2022-12-18T12:18:50;-0.20;1.00
9925;DHT22;5001;51.674;7.868;2022-12-18T12:21:42;-0.20;1.00
9925;DHT22;5001;51.674;7.868;2022-12-18T12:38:54;-0.10;1.00
9925;DHT22;5001;51.674;7.868;2022-12-18T12:41:25;-0.20;1.00
9925;DHT22;5001;51.674;7.868;2022-12-18T12:44:28;-0.20;1.00
9925;DHT22;5001;51.674;7.868;2022-12-18T12:47:00;-0.10;1.00
9925;DHT22;5001;51.674;7.868;2022-12-18T12:49:31;-0.10;1.00
9925;DHT22;5001;51.674;7.868;2022-12-18T12:52:15;-0.10;1.00
9925;DHT22;5001;51.674;7.868;2022-12-18T12:54:44;-0.20;1.00
9925;DHT22;5001;51.674;7.868;2022-12-18T12:57:33;-0.20;1.00
9925;DHT22;5001;51.674;7.868;2022-12-18T13:08:11;-0.50;1.00
9925;DHT22;5001;51.674;7.868;2022-12-18T13:10:40;-0.50;1.00
9925;DHT22;5001;51.674;7.868;2022-12-18T13:13:12;-0.50;1.00
9925;DHT22;5001;51.674;7.868;2022-12-18T13:16:07;-0.50;1.00
9925;DHT22;5001;51.674;7.868;2022-12-18T13:18:33;-0.40;1.00
9925;DHT22;5001;51.674;7.868;2022-12-18T13:23:36;-0.40;1.00
9925;DHT22;5001;51.674;7.868;2022-12-18T13:28:51;-0.40;1.00
9925;DHT22;5001;51.674;7.868;2022-12-18T13:34:29;-0.50;1.00
9925;DHT22;5001;51.674;7.868;2022-12-18T13:37:39;-0.40;1.00
9925;DHT22;5001;51.674;7.868;2022-12-18T13:43:27;-0.40;1.00
9925;DHT22;5001;51.674;7.868;2022-12-18T13:46:20;-0.40;1.00
9925;DHT22;5001;51.674;7.868;2022-12-18T13:48:52;-0.50;1.00
9925;DHT22;5001;51.674;7.868;2022-12-18T13:51:20;-0.40;1.00
9925;DHT22;5001;51.674;7.868;2022-12-18T13:53:57;-0.40;1.00
9925;DHT22;5001;51.674;7.868;2022-12-18T13:56:31;-0.50;1.00
9925;DHT22;5001;51.674;7.868;2022-12-18T14:01:55;-0.50;1.00
9925;DHT22;5001;51.674;7.868;2022-12-18T14:07:13;-0.50;1.00
9925;DHT22;5001;51.674;7.868;2022-12-18T14:09:43;-0.50;1.00
9925;DHT22;5001;51.674;7.868;2022-12-18T14:12:37;-0.60;1.00
9925;DHT22;5001;51.674;7.868;2022-12-18T14:17:58;-0.60;1.00
9925;DHT22;5001;51.674;7.868;2022-12-18T14:20:27;-0.70;1.00
9925;DHT22;5001;51.674;7.868;2022-12-18T14:22:56;-0.70;1.00
9925;DHT22;5001;51.674;7.868;2022-12-18T14:25:27;-0.80;1.00
9925;DHT22;5001;51.674;7.868;2022-12-18T14:30:44;-0.80;1.00
9925;DHT22;5001;51.674;7.868;2022-12-18T14:33:26;-0.80;1.00
9925;DHT22;5001;51.674;7.868;2022-12-18T14:35:59;-0.90;1.00
9925;DHT22;5001;51.674;7.868;2022-12-18T14:40:58;-1.00;1.00
9925;DHT22;5001;51.674;7.868;2022-12-18T14:43:32;-1.00;1.00
9925;DHT22;5001;51.674;7.868;2022-12-18T14:46:01;-1.00;1.00
9925;DHT22;5001;51.674;7.868;2022-12-18T14:48:40;-1.10;1.00
9925;DHT22;5001;51.674;7.868;2022-12-18T14:51:26;-1.10;1.00
9925;DHT22;5001;51.674;7.868;2022-12-18T14:53:56;-1.10;1.00
9925;DHT22;5001;51.674;7.868;2022-12-18T14:56:30;-1.20;1.00
9925;DHT22;5001;51.674;7.868;2022-12-18T14:59:04;-1.20;1.00
9925;DHT22;5001;51.674;7.868;2022-12-18T15:01:36;-1.20;1.00
9925;DHT22;5001;51.674;7.868;2022-12-18T15:04:05;-1.20;1.00
9925;DHT22;5001;51.674;7.868;2022-12-18T15:06:48;-1.20;1.00
9925;DHT22;5001;51.674;7.868;2022-12-18T15:09:25;-1.30;1.00
9925;DHT22;5001;51.674;7.868;2022-12-18T15:12:00;-1.30;1.00
9925;DHT22;5001;51.674;7.868;2022-12-18T15:14:39;-1.30;1.00
9925;DHT22;5001;51.674;7.868;2022-12-18T15:17:26;-1.30;1.00
9925;DHT22;5001;51.674;7.868;2022-12-18T15:20:03;-1.30;1.00
9925;DHT22;5001;51.674;7.868;2022-12-18T15:22:37;-1.30;1.00
9925;DHT22;5001;51.674;7.868;2022-12-18T15:25:31;-1.30;1.00
9925;DHT22;5001;51.674;7.868;2022-12-18T15:27:58;-1.30;1.00
9925;DHT22;5001;51.674;7.868;2022-12-18T15:30:26;-1.20;1.00
9925;DHT22;5001;51.674;7.868;2022-12-18T15:33:20;-1.30;1.00
9925;DHT22;5001;51.674;7.868;2022-12-18T15:35:56;-1.20;1.00
9925;DHT22;5001;51.674;7.868;2022-12-18T15:38:24;-1.10;1.00
9925;DHT22;5001;51.674;7.868;2022-12-18T15:40:52;-1.10;1.00
9925;DHT22;5001;51.674;7.868;2022-12-18T15:43:24;-1.10;1.00
9925;DHT22;5001;51.674;7.868;2022-12-18T15:46:38;-1.00;1.00
9925;DHT22;5001;51.674;7.868;2022-12-18T15:48:58;-0.80;1.00
9925;DHT22;5001;51.674;7.868;2022-12-18T15:51:32;-0.60;1.00
9925;DHT22;5001;51.674;7.868;2022-12-18T15:54:02;-0.60;1.00
9925;DHT22;5001;51.674;7.868;2022-12-18T15:56:30;-0.60;1.00
9925;DHT22;5001;51.674;7.868;2022-12-18T15:59:19;-0.60;1.00
9925;DHT22;5001;51.674;7.868;2022-12-18T16:01:48;-0.70;1.00
9925;DHT22;5001;51.674;7.868;2022-12-18T16:04:17;-0.80;1.00
9925;DHT22;5001;51.674;7.868;2022-12-18T16:06:50;-0.70;1.00
9925;DHT22;5001;51.674;7.868;2022-12-18T16:09:38;-0.60;1.00
9925;DHT22;5001;51.674;7.868;2022-12-18T16:12:19;-0.60;1.00
9925;DHT22;5001;51.674;7.868;2022-12-18T16:14:47;-0.60;1.00
9925;DHT22;5001;51.674;7.868;2022-12-18T16:17:15;-0.60;1.00
9925;DHT22;5001;51.674;7.868;2022-12-18T16:19:42;-0.70;1.00
9925;DHT22;5001;51.674;7.868;2022-12-18T16:22:21;-0.80;1.00
9925;DHT22;5001;51.674;7.868;2022-12-18T16:24:50;-0.80;1.00
9925;DHT22;5001;51.674;7.868;2022-12-18T16:27:18;-0.80;1.00
9925;DHT22;5001;51.674;7.868;2022-12-18T16:29:45;-0.80;1.00
9925;DHT22;5001;51.674;7.868;2022-12-18T16:32:18;-0.90;1.00
9925;DHT22;5001;51.674;7.868;2022-12-18T16:34:45;-0.90;1.00
9925;DHT22;5001;51.674;7.868;2022-12-18T16:37:14;-0.90;1.00
9925;DHT22;5001;51.674;7.868;2022-12-18T16:39:42;-0.90;1.00
9925;DHT22;5001;51.674;7.868;2022-12-18T16:42:17;-0.90;1.00
9925;DHT22;5001;51.674;7.868;2022-12-18T16:44:48;-0.80;1.00
9925;DHT22;5001;51.674;7.868;2022-12-18T16:47:16;-0.60;1.00
9925;DHT22;5001;51.674;7.868;2022-12-18T16:49:46;-0.50;1.00
9925;DHT22;5001;51.674;7.868;2022-12-18T16:52:21;-0.40;1.00
9925;DHT22;5001;51.674;7.868;2022-12-18T16:54:48;-0.30;1.00
9925;DHT22;5001;51.674;7.868;2022-12-18T16:57:18;-0.40;1.00
9925;DHT22;5001;51.674;7.868;2022-12-18T16:59:47;-0.40;1.00
9925;DHT22;5001;51.674;7.868;2022-12-18T17:02:23;-0.40;1.00
9925;DHT22;5001;51.674;7.868;2022-12-18T17:04:54;-0.40;1.00
9925;DHT22;5001;51.674;7.868;2022-12-18T17:07:21;-0.50;1.00
9925;DHT22;5001;51.674;7.868;2022-12-18T17:09:49;-0.50;1.00
9925;DHT22;5001;51.674;7.868;2022-12-18T17:12:16;-0.40;1.00
9925;DHT22;5001;51.674;7.868;2022-12-18T17:14:43;-0.50;1.00
9925;DHT22;5001;51.674;7.868;2022-12-18T17:17:11;-0.40;1.00
9925;DHT22;5001;51.674;7.868;2022-12-18T17:19:49;-0.40;1.00
9925;DHT22;5001;51.674;7.868;2022-12-18T17:22:16;-0.50;1.00
9925;DHT22;5001;51.674;7.868;2022-12-18T17:24:43;-0.50;1.00
9925;DHT22;5001;51.674;7.868;2022-12-18T17:27:11;-0.50;1.00
9925;DHT22;5001;51.674;7.868;2022-12-18T17:29:38;-0.50;1.00
9925;DHT22;5001;51.674;7.868;2022-12-18T17:32:13;-0.60;1.00
9925;DHT22;5001;51.674;7.868;2022-12-18T17:34:40;-0.60;1.00
9925;DHT22;5001;51.674;7.868;2022-12-18T17:37:07;-0.60;1.00
9925;DHT22;5001;51.674;7.868;2022-12-18T17:39:34;-0.60;1.00
9925;DHT22;5001;51.674;7.868;2022-12-18T17:42:01;-0.70;1.00
9925;DHT22;5001;51.674;7.868;2022-12-18T17:44:30;-0.80;1.00
9925;DHT22;5001;51.674;7.868;2022-12-18T17:46:57;-0.80;1.00
9925;DHT22;5001;51.674;7.868;2022-12-18T17:49:24;-0.90;1.00
9925;DHT22;5001;51.674;7.868;2022-12-18T17:51:52;-0.90;1.00
9925;DHT22;5001;51.674;7.868;2022-12-18T17:54:20;-0.90;1.00
9925;DHT22;5001;51.674;7.868;2022-12-18T17:56:47;-0.90;1.00
9925;DHT22;5001;51.674;7.868;2022-12-18T17:59:13;-0.90;1.00
9925;DHT22;5001;51.674;7.868;2022-12-18T18:01:40;-0.80;1.00
9925;DHT22;5001;51.674;7.868;2022-12-18T18:04:11;-0.70;1.00
9925;DHT22;5001;51.674;7.868;2022-12-18T18:06:39;0.30;1.00
9925;DHT22;5001;51.674;7.868;2022-12-18T18:09:06;0.60;1.00
9925;DHT22;5001;51.674;7.868;2022-12-18T18:11:44;0.80;1.00
9925;DHT22;5001;51.674;7.868;2022-12-18T18:14:30;0.80;1.00
9925;DHT22;5001;51.674;7.868;2022-12-18T18:16:57;0.90;1.00
9925;DHT22;5001;51.674;7.868;2022-12-18T18:19:30;0.90;1.00
9925;DHT22;5001;51.674;7.868;2022-12-18T18:21:57;1.00;1.00
9925;DHT22;5001;51.674;7.868;2022-12-18T18:24:24;1.20;1.00
9925;DHT22;5001;51.674;7.868;2022-12-18T18:26:52;1.10;1.00
9925;DHT22;5001;51.674;7.868;2022-12-18T18:29:21;1.10;1.00
9925;DHT22;5001;51.674;7.868;2022-12-18T18:31:49;1.20;1.00
9925;DHT22;5001;51.674;7.868;2022-12-18T18:34:19;1.10;1.00
9925;DHT22;5001;51.674;7.868;2022-12-18T18:36:46;1.20;1.00
9925;DHT22;5001;51.674;7.868;2022-12-18T18:39:14;1.30;1.00
9925;DHT22;5001;51.674;7.868;2022-12-18T18:41:41;1.30;1.00
9925;DHT22;5001;51.674;7.868;2022-12-18T18:44:14;1.10;1.00
9925;DHT22;5001;51.674;7.868;2022-12-18T18:46:41;1.20;1.00
9925;DHT22;5001;51.674;7.868;2022-12-18T18:49:08;1.30;1.00